Alfred, North Dakota
Current Conditions -  °F | °C
As of 9:56 AM on Wednesday 28 Jan 2015 (Local Time) from KJMS Reporting Station
Moderate Fog Moderate Fog  
Wind Chill: -4°   Ceiling: 200
Heat Index: -1°   Visibility: 0.25mi
Dew Point: -1°   Wind: 6mph
Humidity: 100%   Direction: 180°S
Pressure: 29.73"   Gusts: NA
Location:  46.4882°N, 98.8135°W
Report Text: KJMS 281556Z AUTO 18005KT 1/4SM FZFG VV002 M01/M01 A2973 RMK AO2 SLP085 T10111011
Loading
Personal Weather Stations






























Interactive Weather Map New forecast layout! Learn more

10-Day Weather Forecast

Advertisements
Track Severe Weather on mobile